Ana Sayfa
METAR-TAF:

METAR-TAF

Havaalanları :

Wonderboom Airport

Pretoria, Güney Afrika

Enlem: 25-39S, Boylam: 028-13E, yükseklik: 1248 m

METAR: eksik

Saat: 00:46 (22:46 UTC)

Tahmin

Rapor saat 09:00 UTC de 13 saat ve 46 dakika önce yapıldı.
Ayın 27'si saat 10 UTC'den ayın 27'si saat 18 UTC'ye kadar geçerli Tahmin
Rüzgar değişken yönden 3 kt
Görüş mesafesi 10 km veya daha fazla
1500 m altında bulut yok ve kümülonimbus yok
Dönüşüyor
ayın 27'si saat 11 UTC'den ayın 27'si saat 13 UTC'ye kadar
Rüzgar batı/kuzeybatıdan 10 kt
Olasılık 30% :
Geçici
ayın 27'si saat 13 UTC'den ayın 27'si saat 15 UTC'ye kadar
4500 ft yükseklikte az bulutlu, Yükselen kümülüs.

TAF: FAWB 270900Z 2710/2718 VRB03KT CAVOK TX31/2713Z TN24/2718Z BECMG 2711/2713 29010KT PROB30 TEMPO 2713/2715 FEW045TCU

4.000'den fazla havaalanı için hava durumu gözlemleri ve tahminleri (METAR ve TAF raporları).

Kullanılabilir istasyonlar harita üzerinde sarı ve kırmızı noktalarla gösterilir.

İstasyonun adını görmek için fareyi noktanın üzerinde gezdirin.

Sonrasında hava gözlem ve tahminlerini görmek için tıklayın.

Haritayı değiştirmek için: yaklaştırmak için siyah artı işaretli yeşil düğmeye ve uzaklaştırmak için de eksi işaretli düğmeye hızla tıklayın; bitişik haritalar için yeşil okları kullanın.


METAR-TAF: